Terminal Aerodrome Forecast
Issued by NWS

Home | Current Version | Previous Version | Text Only | Print | Product List | Glossary On
Versions: 1 2 3 4 5 6 7 8 9 10 11 12 13 14 15 16 17 18 19 20 21 22
000
FTUS43 KGRB 162321
TAFAUW
TAF
KAUW 162321Z 1700/1724 10010KT P6SM SCT035 BKN100
     FM170300 11011KT P6SM -SHRA SCT025 OVC040
      TEMPO 1704/1705 2SM +TSRA BR OVC015CB
     FM170500 15011G18KT 4SM -SHRA BR BKN008 OVC012 WS015/16040KT
      TEMPO 1705/1708 2SM TSRA BR OVC012CB
     FM171600 20009KT 4SM -SHRA BR OVC011 PROB30 1716/1718 4SM TSRA
      BKN015CB
     FM172000 26010G17KT 6SM -SHRA BKN008=

USA.gov is the U.S. government's official web portal to all federal, state and local government web resources and services.